Time,TemperatureF,DewpointF,PressureIn,WindDirection,WindDirectionDegrees,WindSpeedMPH,WindSpeedGustMPH,Humidity,HourlyPrecipIn,Conditions,Clouds,dailyrainin,SoftwareType,DateUTC
2013-03-07 00:01:00,36.0,33.0,-100.00,ENE,72,1.0,3.0,89,-99.99,,,-99.99,,2013-03-07 08:01:00,
2013-03-07 00:11:00,37.0,34.0,-100.00,ENE,61,1.0,4.0,89,-99.99,,,-99.99,,2013-03-07 08:11:00,
2013-03-07 00:22:00,36.0,33.0,-100.00,ESE,112,1.0,3.0,89,-99.99,,,-99.99,,2013-03-07 08:22:00,
2013-03-07 00:32:00,36.0,34.0,-100.00,East,90,1.0,2.0,91,-99.99,,,-99.99,,2013-03-07 08:32:00,
2013-03-07 00:43:00,35.0,33.0,-100.00,East,90,1.0,2.0,93,-99.99,,,-99.99,,2013-03-07 08:43:00,
2013-03-07 00:52:00,35.0,34.0,-100.00,ENE,69,1.0,3.0,95,-99.99,,,-99.99,,2013-03-07 08:52:00,
2013-03-07 01:02:00,36.0,35.0,-100.00,NW,307,2.0,7.0,97,-99.99,,,-99.99,,2013-03-07 09:02:00,
2013-03-07 01:11:00,37.0,36.0,-100.00,WNW,286,1.0,6.0,98,-99.99,,,-99.99,,2013-03-07 09:11:00,
2013-03-07 01:21:00,37.0,36.0,-100.00,West,277,1.0,4.0,98,-99.99,,,-99.99,,2013-03-07 09:21:00,
2013-03-07 01:32:00,37.0,36.0,-100.00,NW,313,1.0,5.0,98,-99.99,,,-99.99,,2013-03-07 09:32:00,
2013-03-07 01:42:00,37.0,37.0,-100.00,West,278,1.0,3.0,99,-99.99,,,-99.99,,2013-03-07 09:42:00,
2013-03-07 01:52:00,37.0,37.0,-100.00,NW,307,2.0,5.0,99,-99.99,,,-99.99,,2013-03-07 09:52:00,
2013-03-07 02:01:00,37.0,37.0,-100.00,WNW,300,2.0,6.0,99,-99.99,,,-99.99,,2013-03-07 10:01:00,
2013-03-07 02:11:00,37.0,37.0,-100.00,West,260,1.0,3.0,99,-99.99,,,-99.99,,2013-03-07 10:11:00,
2013-03-07 02:22:00,37.0,37.0,-100.00,NW,325,1.0,2.0,99,-99.99,,,-99.99,,2013-03-07 10:22:00,
2013-03-07 02:32:00,37.0,37.0,-100.00,NW,319,1.0,4.0,99,-99.99,,,-99.99,,2013-03-07 10:32:00,
2013-03-07 02:42:00,37.0,37.0,-100.00,WSW,251,1.0,3.0,99,-99.99,,,-99.99,,2013-03-07 10:42:00,
2013-03-07 02:52:00,37.0,37.0,-100.00,WSW,246,1.0,3.0,99,-99.99,,,-99.99,,2013-03-07 10:52:00,
2013-03-07 03:01:00,37.0,37.0,-100.00,SSW,212,1.0,4.0,99,-99.99,,,-99.99,,2013-03-07 11:01:00,
2013-03-07 03:11:00,38.0,38.0,-100.00,SSW,200,2.0,5.0,99,-99.99,,,-99.99,,2013-03-07 11:11:00,
2013-03-07 03:22:00,38.0,37.0,-100.00,SSW,198,2.0,6.0,98,-99.99,,,-99.99,,2013-03-07 11:22:00,
2013-03-07 03:32:00,38.0,37.0,-100.00,South,187,4.0,9.0,98,-99.99,,,-99.99,,2013-03-07 11:32:00,
2013-03-07 03:42:00,38.0,38.0,-100.00,SSW,193,4.0,8.0,99,-99.99,,,-99.99,,2013-03-07 11:42:00,
2013-03-07 03:52:00,38.0,38.0,-100.00,SSW,197,2.0,5.0,99,-99.99,,,-99.99,,2013-03-07 11:52:00,
2013-03-07 04:01:00,38.0,38.0,-100.00,SW,215,3.0,7.0,99,-99.99,,,-99.99,,2013-03-07 12:01:00,
2013-03-07 04:11:00,37.0,37.0,-100.00,SW,229,2.0,7.0,99,-99.99,,,-99.99,,2013-03-07 12:11:00,
2013-03-07 04:21:00,37.0,37.0,-100.00,SSW,200,2.0,7.0,99,-99.99,,,-99.99,,2013-03-07 12:21:00,
2013-03-07 04:32:00,37.0,37.0,-100.00,SW,218,3.0,7.0,99,-99.99,,,-99.99,,2013-03-07 12:32:00,
2013-03-07 04:42:00,37.0,37.0,-100.00,SW,219,3.0,8.0,99,-99.99,,,-99.99,,2013-03-07 12:42:00,
2013-03-07 04:52:00,37.0,37.0,-100.00,SW,214,4.0,8.0,100,-99.99,,,-99.99,,2013-03-07 12:52:00,
2013-03-07 05:02:00,37.0,37.0,-100.00,SW,234,3.0,8.0,100,-99.99,,,-99.99,,2013-03-07 13:02:00,
2013-03-07 05:12:00,37.0,37.0,-100.00,SW,218,3.0,7.0,100,-99.99,,,-99.99,,2013-03-07 13:12:00,
2013-03-07 05:21:00,37.0,37.0,-100.00,SW,222,3.0,9.0,100,-99.99,,,-99.99,,2013-03-07 13:21:00,
2013-03-07 05:32:00,37.0,37.0,-100.00,SSW,210,5.0,10.0,100,-99.99,,,-99.99,,2013-03-07 13:32:00,
2013-03-07 05:42:00,37.0,37.0,-100.00,SSW,210,5.0,10.0,100,-99.99,,,-99.99,,2013-03-07 13:42:00,
2013-03-07 05:52:00,37.0,37.0,-100.00,SW,217,3.0,8.0,100,-99.99,,,-99.99,,2013-03-07 13:52:00,
2013-03-07 06:01:00,37.0,37.0,-100.00,SW,215,5.0,10.0,100,-99.99,,,-99.99,,2013-03-07 14:01:00,
2013-03-07 06:11:00,37.0,37.0,-100.00,SSW,200,3.0,9.0,100,-99.99,,,-99.99,,2013-03-07 14:11:00,
2013-03-07 06:21:00,37.0,37.0,-100.00,SSW,210,4.0,8.0,100,-99.99,,,-99.99,,2013-03-07 14:21:00,
2013-03-07 06:32:00,37.0,37.0,-100.00,SSW,203,4.0,9.0,100,-99.99,,,-99.99,,2013-03-07 14:32:00,
2013-03-07 06:42:00,37.0,37.0,-100.00,SSW,194,4.0,8.0,100,-99.99,,,-99.99,,2013-03-07 14:42:00,
2013-03-07 06:52:00,37.0,37.0,-100.00,SSW,204,4.0,10.0,100,-99.99,,,-99.99,,2013-03-07 14:52:00,
2013-03-07 07:02:00,37.0,37.0,-100.00,SSW,198,3.0,6.0,100,-99.99,,,-99.99,,2013-03-07 15:02:00,
2013-03-07 07:11:00,37.0,37.0,-100.00,SSW,203,4.0,8.0,100,-99.99,,,-99.99,,2013-03-07 15:11:00,
2013-03-07 07:22:00,37.0,37.0,-100.00,SSW,196,4.0,8.0,100,-99.99,,,-99.99,,2013-03-07 15:22:00,
2013-03-07 07:32:00,37.0,37.0,-100.00,SSW,204,3.0,7.0,100,-99.99,,,-99.99,,2013-03-07 15:32:00,
2013-03-07 07:42:00,37.0,37.0,-100.00,SSW,205,3.0,8.0,100,-99.99,,,-99.99,,2013-03-07 15:42:00,
2013-03-07 07:52:00,38.0,38.0,-100.00,South,183,5.0,8.0,99,-99.99,,,-99.99,,2013-03-07 15:52:00,
2013-03-07 08:01:00,38.0,38.0,-100.00,SSW,193,5.0,11.0,99,-99.99,,,-99.99,,2013-03-07 16:01:00,
2013-03-07 08:11:00,38.0,38.0,-100.00,SSW,202,5.0,10.0,99,-99.99,,,-99.99,,2013-03-07 16:11:00,
2013-03-07 08:21:00,38.0,38.0,-100.00,SSW,202,6.0,11.0,99,-99.99,,,-99.99,,2013-03-07 16:21:00,
2013-03-07 08:32:00,38.0,38.0,-100.00,SSW,202,6.0,11.0,99,-99.99,,,-99.99,,2013-03-07 16:32:00,
2013-03-07 08:42:00,38.0,38.0,-100.00,SW,214,5.0,11.0,99,-99.99,,,-99.99,,2013-03-07 16:42:00,
2013-03-07 08:52:00,38.0,38.0,-100.00,SW,214,5.0,11.0,99,-99.99,,,-99.99,,2013-03-07 16:52:00,
2013-03-07 09:01:00,38.0,38.0,-100.00,SSW,208,6.0,11.0,99,-99.99,,,-99.99,,2013-03-07 17:01:00,
2013-03-07 09:11:00,38.0,38.0,-100.00,SW,216,5.0,13.0,99,-99.99,,,-99.99,,2013-03-07 17:11:00,
2013-03-07 09:22:00,38.0,38.0,-100.00,SSW,208,6.0,13.0,99,-99.99,,,-99.99,,2013-03-07 17:22:00,
2013-03-07 09:32:00,38.0,38.0,-100.00,SW,214,6.0,13.0,99,-99.99,,,-99.99,,2013-03-07 17:32:00,
2013-03-07 09:42:00,38.0,38.0,-100.00,SW,217,6.0,11.0,99,-99.99,,,-99.99,,2013-03-07 17:42:00,
2013-03-07 09:52:00,38.0,38.0,-100.00,SSW,212,6.0,11.0,99,-99.99,,,-99.99,,2013-03-07 17:52:00,
2013-03-07 10:02:00,39.0,39.0,-100.00,SW,216,6.0,13.0,99,-99.99,,,-99.99,,2013-03-07 18:02:00,
2013-03-07 10:11:00,38.0,38.0,-100.00,SW,218,6.0,12.0,99,-99.99,,,-99.99,,2013-03-07 18:11:00,
2013-03-07 10:21:00,39.0,39.0,-100.00,SSW,208,5.0,11.0,99,-99.99,,,-99.99,,2013-03-07 18:21:00,
2013-03-07 10:31:00,39.0,39.0,-100.00,SSW,203,7.0,13.0,99,-99.99,,,-99.99,,2013-03-07 18:31:00,
2013-03-07 10:42:00,39.0,38.0,-100.00,SSW,212,7.0,14.0,98,-99.99,,,-99.99,,2013-03-07 18:42:00,
2013-03-07 10:52:00,39.0,38.0,-100.00,SSW,212,7.0,13.0,97,-99.99,,,-99.99,,2013-03-07 18:52:00,
2013-03-07 11:02:00,39.0,38.0,-100.00,SSW,212,7.0,13.0,97,-99.99,,,-99.99,,2013-03-07 19:02:00,
2013-03-07 11:11:00,38.0,37.0,-100.00,SSW,210,9.0,22.0,97,-99.99,,,-99.99,,2013-03-07 19:11:00,
2013-03-07 11:21:00,39.0,38.0,-100.00,SSW,206,8.0,14.0,96,-99.99,,,-99.99,,2013-03-07 19:21:00,
2013-03-07 11:33:00,39.0,38.0,-100.00,SSW,213,9.0,19.0,96,-99.99,,,-99.99,,2013-03-07 19:33:00,
2013-03-07 11:42:00,39.0,38.0,-100.00,SSW,212,8.0,16.0,95,-99.99,,,-99.99,,2013-03-07 19:42:00,
2013-03-07 11:52:00,39.0,38.0,-100.00,SW,220,7.0,16.0,96,-99.99,,,-99.99,,2013-03-07 19:52:00,
2013-03-07 12:01:00,39.0,38.0,-100.00,SW,220,7.0,16.0,96,-99.99,,,-99.99,,2013-03-07 20:01:00,
2013-03-07 12:12:00,39.0,38.0,-100.00,SW,225,8.0,18.0,95,-99.99,,,-99.99,,2013-03-07 20:12:00,
2013-03-07 12:21:00,39.0,37.0,-100.00,SSW,213,6.0,13.0,94,-99.99,,,-99.99,,2013-03-07 20:21:00,
2013-03-07 12:31:00,40.0,36.0,-100.00,SSW,204,11.0,19.0,87,-99.99,,,-99.99,,2013-03-07 20:31:00,
2013-03-07 12:42:00,41.0,36.0,-100.00,SSW,203,13.0,25.0,83,-99.99,,,-99.99,,2013-03-07 20:42:00,
2013-03-07 12:52:00,40.0,35.0,-100.00,SSW,201,12.0,23.0,83,-99.99,,,-99.99,,2013-03-07 20:52:00,
2013-03-07 13:01:00,40.0,35.0,-100.00,SSW,201,12.0,23.0,83,-99.99,,,-99.99,,2013-03-07 21:01:00,
2013-03-07 13:11:00,40.0,35.0,-100.00,SSW,205,12.0,22.0,82,-99.99,,,-99.99,,2013-03-07 21:11:00,
2013-03-07 13:22:00,40.0,35.0,-100.00,SW,218,7.0,14.0,82,-99.99,,,-99.99,,2013-03-07 21:22:00,
2013-03-07 13:32:00,40.0,36.0,-100.00,SSW,209,7.0,14.0,85,-99.99,,,-99.99,,2013-03-07 21:32:00,
2013-03-07 13:42:00,40.0,36.0,-100.00,SSW,207,7.0,18.0,84,-99.99,,,-99.99,,2013-03-07 21:42:00,
2013-03-07 13:52:00,40.0,36.0,-100.00,SSW,207,7.0,18.0,84,-99.99,,,-99.99,,2013-03-07 21:52:00,
2013-03-07 14:01:00,40.0,35.0,-100.00,SSW,196,9.0,17.0,81,-99.99,,,-99.99,,2013-03-07 22:01:00,
2013-03-07 14:11:00,40.0,34.0,-100.00,SSW,208,8.0,15.0,80,-99.99,,,-99.99,,2013-03-07 22:11:00,
2013-03-07 14:22:00,40.0,34.0,-100.00,SW,214,9.0,17.0,80,-99.99,,,-99.99,,2013-03-07 22:22:00,
2013-03-07 14:32:00,39.0,34.0,-100.00,SSW,213,9.0,17.0,82,-99.99,,,-99.99,,2013-03-07 22:32:00,
2013-03-07 14:42:00,39.0,35.0,-100.00,SW,215,10.0,17.0,84,-99.99,,,-99.99,,2013-03-07 22:42:00,
2013-03-07 14:52:00,38.0,34.0,-100.00,SW,217,9.0,15.0,87,-99.99,,,-99.99,,2013-03-07 22:52:00,
2013-03-07 15:01:00,38.0,34.0,-100.00,SW,217,9.0,15.0,87,-99.99,,,-99.99,,2013-03-07 23:01:00,
2013-03-07 15:12:00,38.0,35.0,-100.00,SW,221,9.0,15.0,88,-99.99,,,-99.99,,2013-03-07 23:12:00,
2013-03-07 15:21:00,38.0,36.0,-100.00,SW,217,9.0,15.0,91,-99.99,,,-99.99,,2013-03-07 23:21:00,
2013-03-07 15:32:00,38.0,36.0,-100.00,SW,214,11.0,20.0,91,-99.99,,,-99.99,,2013-03-07 23:32:00,
2013-03-07 15:42:00,38.0,34.0,-100.00,SSW,213,11.0,19.0,86,-99.99,,,-99.99,,2013-03-07 23:42:00,
2013-03-07 15:52:00,38.0,34.0,-100.00,SSW,205,11.0,19.0,84,-99.99,,,-99.99,,2013-03-07 23:52:00,
2013-03-07 16:02:00,38.0,34.0,-100.00,SSW,205,11.0,19.0,84,-99.99,,,-99.99,,2013-03-08 00:02:00,
2013-03-07 16:11:00,38.0,33.0,-100.00,SW,215,9.0,21.0,82,-99.99,,,-99.99,,2013-03-08 00:11:00,
2013-03-07 16:22:00,38.0,33.0,-100.00,SW,216,9.0,18.0,82,-99.99,,,-99.99,,2013-03-08 00:22:00,
2013-03-07 16:33:00,37.0,32.0,-100.00,SW,219,10.0,17.0,83,-99.99,,,-99.99,,2013-03-08 00:33:00,
2013-03-07 16:42:00,37.0,32.0,-100.00,SSW,206,10.0,21.0,83,-99.99,,,-99.99,,2013-03-08 00:42:00,
2013-03-07 16:52:00,37.0,32.0,-100.00,SW,215,11.0,21.0,82,-99.99,,,-99.99,,2013-03-08 00:52:00,
2013-03-07 17:01:00,37.0,32.0,-100.00,SSW,212,10.0,23.0,83,-99.99,,,-99.99,,2013-03-08 01:01:00,
2013-03-07 17:11:00,37.0,33.0,-100.00,SW,215,9.0,17.0,85,-99.99,,,-99.99,,2013-03-08 01:11:00,
2013-03-07 17:21:00,36.0,33.0,-100.00,SW,216,7.0,16.0,87,-99.99,,,-99.99,,2013-03-08 01:21:00,
2013-03-07 17:32:00,36.0,33.0,-100.00,SW,220,8.0,14.0,88,-99.99,,,-99.99,,2013-03-08 01:32:00,
2013-03-07 17:42:00,36.0,33.0,-100.00,SW,222,8.0,15.0,89,-99.99,,,-99.99,,2013-03-08 01:42:00,
2013-03-07 17:51:00,36.0,34.0,-100.00,SSW,206,7.0,13.0,91,-99.99,,,-99.99,,2013-03-08 01:51:00,
2013-03-07 18:01:00,36.0,34.0,-100.00,SW,215,7.0,14.0,92,-99.99,,,-99.99,,2013-03-08 02:01:00,
2013-03-07 18:11:00,36.0,34.0,-100.00,SSW,208,7.0,14.0,94,-99.99,,,-99.99,,2013-03-08 02:11:00,
2013-03-07 18:21:00,35.0,34.0,-100.00,SW,217,6.0,13.0,95,-99.99,,,-99.99,,2013-03-08 02:21:00,
2013-03-07 18:31:00,35.0,34.0,-100.00,SSW,206,7.0,15.0,95,-99.99,,,-99.99,,2013-03-08 02:31:00,
2013-03-07 18:41:00,35.0,34.0,-100.00,SSW,213,4.0,12.0,96,-99.99,,,-99.99,,2013-03-08 02:41:00,
2013-03-07 18:52:00,35.0,34.0,-100.00,SSW,209,4.0,8.0,97,-99.99,,,-99.99,,2013-03-08 02:52:00,
2013-03-07 19:01:00,35.0,34.0,-100.00,SW,218,3.0,7.0,96,-99.99,,,-99.99,,2013-03-08 03:01:00,
2013-03-07 19:11:00,35.0,34.0,-100.00,SSW,194,3.0,6.0,96,-99.99,,,-99.99,,2013-03-08 03:11:00,
2013-03-07 19:22:00,35.0,34.0,-100.00,SSW,203,2.0,5.0,96,-99.99,,,-99.99,,2013-03-08 03:22:00,
2013-03-07 19:32:00,34.0,33.0,-100.00,South,176,2.0,5.0,96,-99.99,,,-99.99,,2013-03-08 03:32:00,
2013-03-07 19:42:00,34.0,32.0,-100.00,South,182,1.0,5.0,94,-99.99,,,-99.99,,2013-03-08 03:42:00,
2013-03-07 19:52:00,33.0,31.0,-100.00,South,178,1.0,4.0,94,-99.99,,,-99.99,,2013-03-08 03:52:00,
2013-03-07 20:01:00,33.0,31.0,-100.00,South,178,1.0,4.0,94,-99.99,,,-99.99,,2013-03-08 04:01:00,
2013-03-07 20:11:00,33.0,31.0,-100.00,South,177,1.0,3.0,94,-99.99,,,-99.99,,2013-03-08 04:11:00,
2013-03-07 20:21:00,33.0,31.0,-100.00,SSE,163,2.0,3.0,92,-99.99,,,-99.99,,2013-03-08 04:21:00,
2013-03-07 20:31:00,33.0,31.0,-100.00,South,173,2.0,3.0,91,-99.99,,,-99.99,,2013-03-08 04:31:00,
2013-03-07 20:42:00,33.0,31.0,-100.00,SSE,167,3.0,6.0,92,-99.99,,,-99.99,,2013-03-08 04:42:00,
2013-03-07 20:51:00,34.0,31.0,-100.00,South,174,4.0,8.0,90,-99.99,,,-99.99,,2013-03-08 04:51:00,
2013-03-07 21:01:00,34.0,31.0,-100.00,South,182,4.0,8.0,90,-99.99,,,-99.99,,2013-03-08 05:01:00,
2013-03-07 21:12:00,34.0,32.0,-100.00,South,188,4.0,6.0,91,-99.99,,,-99.99,,2013-03-08 05:12:00,
2013-03-07 21:22:00,34.0,32.0,-100.00,South,186,4.0,7.0,91,-99.99,,,-99.99,,2013-03-08 05:22:00,
2013-03-07 21:32:00,35.0,32.0,-100.00,South,183,6.0,9.0,90,-99.99,,,-99.99,,2013-03-08 05:32:00,
2013-03-07 21:42:00,35.0,32.0,-100.00,South,182,5.0,8.0,89,-99.99,,,-99.99,,2013-03-08 05:42:00,
2013-03-07 21:52:00,35.0,32.0,-100.00,South,181,5.0,8.0,89,-99.99,,,-99.99,,2013-03-08 05:52:00,
2013-03-07 22:01:00,35.0,32.0,-100.00,South,182,5.0,7.0,89,-99.99,,,-99.99,,2013-03-08 06:01:00,
2013-03-07 22:11:00,35.0,32.0,-100.00,SSE,164,6.0,7.0,89,-99.99,,,-99.99,,2013-03-08 06:11:00,
2013-03-07 22:21:00,36.0,33.0,-100.00,South,177,5.0,8.0,89,-99.99,,,-99.99,,2013-03-08 06:21:00,
2013-03-07 22:31:00,36.0,34.0,-100.00,South,190,5.0,9.0,92,-99.99,,,-99.99,,2013-03-08 06:31:00,
2013-03-07 22:42:00,36.0,34.0,-100.00,South,190,5.0,9.0,92,-99.99,,,-99.99,,2013-03-08 06:42:00,
2013-03-07 22:51:00,36.0,35.0,-100.00,South,187,6.0,11.0,95,-99.99,,,-99.99,,2013-03-08 06:51:00,
2013-03-07 23:01:00,36.0,35.0,-100.00,South,187,6.0,11.0,95,-99.99,,,-99.99,,2013-03-08 07:01:00,
2013-03-07 23:11:00,36.0,35.0,-100.00,South,185,8.0,13.0,96,-99.99,,,-99.99,,2013-03-08 07:11:00,
2013-03-07 23:21:00,36.0,35.0,-100.00,South,173,9.0,13.0,95,-99.99,,,-99.99,,2013-03-08 07:21:00,
2013-03-07 23:31:00,36.0,35.0,-100.00,South,176,8.0,12.0,95,-99.99,,,-99.99,,2013-03-08 07:31:00,
2013-03-07 23:41:00,36.0,35.0,-100.00,South,176,8.0,12.0,95,-99.99,,,-99.99,,2013-03-08 07:41:00,
2013-03-07 23:51:00,36.0,35.0,-100.00,South,176,7.0,11.0,98,-99.99,,,-99.99,,2013-03-08 07:51:00,